Main page
METAR-TAF:

METAR-TAF

Airports :

Bolzano, Italy

latitude: 46-28N, longitude: 011-20E, elevation: 262 m

Current weather observation

The report was made 3 hours and 4 minutes ago, at 20:50 UTC
Wind 2 kt from variable directions
Temperature 20°C
Humidity 94%
Pressure 1014 hPa
Visibility 10 km or more
Scattered clouds at a height of 6000 ft
Broken clouds at a height of 12000 ft

METAR: LIPB 202050Z VRB02KT 9999 SCT060 BKN120 20/19 Q1014

Time: 01:54 (23:54 UTC)

Forecast

The report was made 6 hours and 54 minutes ago, at 17:00 UTC
Forecast valid from 20 at 18 UTC to 21 at 18 UTC
Wind 5 kt from variable directions
Visibility 10 km or more
Scattered clouds at a height of 3000 ft
Temporary
from 20 at 18 UTC to 20 at 21 UTC
thunderstorm, rain

TAF: LIPB 201700Z 2018/2118 VRB05KT 9999 SCT030 TEMPO 2018/2021 TSRA

Weather observations and forecasts of more than 4000 airports (METAR and TAF reports).

The available stations are represented by yellow and red dots on the map.

Hover mouse over dot to see the name of the station.

Then click to see weather observations and forecasts.

To change the map : click on the green buttons with a black cross to zoom in, on the green button with a dash to zoom out, or on the green arrows for adjacent maps.


METAR-TAF: